sensor_id;sensor_type;location;lat;lon;timestamp;P1;durP1;ratioP1;P2;durP2;ratioP2
36377;SDS011;22402;42.746;23.606;2023-01-29T00:02:03;35.83;;;13.73;;
36377;SDS011;22402;42.746;23.606;2023-01-29T00:04:28;37.40;;;14.50;;
36377;SDS011;22402;42.746;23.606;2023-01-29T00:06:54;35.93;;;13.77;;
36377;SDS011;22402;42.746;23.606;2023-01-29T00:09:19;34.50;;;14.33;;
36377;SDS011;22402;42.746;23.606;2023-01-29T00:11:45;37.53;;;14.20;;
36377;SDS011;22402;42.746;23.606;2023-01-29T00:14:10;33.30;;;13.60;;
36377;SDS011;22402;42.746;23.606;2023-01-29T00:16:35;40.57;;;13.83;;
36377;SDS011;22402;42.746;23.606;2023-01-29T00:19:01;42.20;;;14.90;;
36377;SDS011;22402;42.746;23.606;2023-01-29T00:21:27;34.40;;;12.90;;
36377;SDS011;22402;42.746;23.606;2023-01-29T00:23:53;37.43;;;13.67;;
36377;SDS011;22402;42.746;23.606;2023-01-29T00:26:18;35.70;;;13.33;;
36377;SDS011;22402;42.746;23.606;2023-01-29T00:28:44;37.73;;;14.50;;
36377;SDS011;22402;42.746;23.606;2023-01-29T00:31:10;36.73;;;13.43;;
36377;SDS011;22402;42.746;23.606;2023-01-29T00:33:46;45.47;;;14.60;;
36377;SDS011;22402;42.746;23.606;2023-01-29T00:36:13;42.53;;;14.30;;
36377;SDS011;22402;42.746;23.606;2023-01-29T00:38:39;34.73;;;13.20;;
36377;SDS011;22402;42.746;23.606;2023-01-29T00:41:08;40.00;;;14.10;;
36377;SDS011;22402;42.746;23.606;2023-01-29T00:43:35;46.33;;;16.33;;
36377;SDS011;22402;42.746;23.606;2023-01-29T00:46:00;45.97;;;16.40;;
36377;SDS011;22402;42.746;23.606;2023-01-29T00:48:25;42.93;;;15.70;;
36377;SDS011;22402;42.746;23.606;2023-01-29T00:50:50;41.37;;;15.27;;
36377;SDS011;22402;42.746;23.606;2023-01-29T00:53:16;35.57;;;13.80;;
36377;SDS011;22402;42.746;23.606;2023-01-29T00:55:41;40.17;;;13.63;;
36377;SDS011;22402;42.746;23.606;2023-01-29T00:58:08;29.00;;;12.33;;
36377;SDS011;22402;42.746;23.606;2023-01-29T01:00:34;35.17;;;13.10;;
36377;SDS011;22402;42.746;23.606;2023-01-29T01:02:59;39.07;;;13.80;;
36377;SDS011;22402;42.746;23.606;2023-01-29T01:05:27;35.30;;;12.30;;
36377;SDS011;22402;42.746;23.606;2023-01-29T01:07:53;52.77;;;15.23;;
36377;SDS011;22402;42.746;23.606;2023-01-29T01:10:27;45.27;;;14.43;;
36377;SDS011;22402;42.746;23.606;2023-01-29T01:12:55;40.23;;;14.73;;
36377;SDS011;22402;42.746;23.606;2023-01-29T01:15:23;34.07;;;14.17;;
36377;SDS011;22402;42.746;23.606;2023-01-29T01:17:53;38.40;;;13.97;;
36377;SDS011;22402;42.746;23.606;2023-01-29T01:20:20;33.70;;;12.97;;
36377;SDS011;22402;42.746;23.606;2023-01-29T01:22:46;40.63;;;13.63;;
36377;SDS011;22402;42.746;23.606;2023-01-29T01:25:11;40.67;;;14.50;;
36377;SDS011;22402;42.746;23.606;2023-01-29T01:27:36;39.13;;;13.57;;
36377;SDS011;22402;42.746;23.606;2023-01-29T01:30:02;32.80;;;13.50;;
36377;SDS011;22402;42.746;23.606;2023-01-29T01:32:28;32.80;;;12.10;;
36377;SDS011;22402;42.746;23.606;2023-01-29T01:34:53;34.77;;;13.20;;
36377;SDS011;22402;42.746;23.606;2023-01-29T01:37:19;34.17;;;12.00;;
36377;SDS011;22402;42.746;23.606;2023-01-29T01:39:44;33.00;;;12.27;;
36377;SDS011;22402;42.746;23.606;2023-01-29T01:42:11;31.97;;;11.73;;
36377;SDS011;22402;42.746;23.606;2023-01-29T01:47:20;34.13;;;12.47;;
36377;SDS011;22402;42.746;23.606;2023-01-29T01:49:50;47.73;;;14.07;;
36377;SDS011;22402;42.746;23.606;2023-01-29T01:52:17;26.90;;;11.07;;
36377;SDS011;22402;42.746;23.606;2023-01-29T01:54:44;30.90;;;11.90;;
36377;SDS011;22402;42.746;23.606;2023-01-29T01:57:12;36.10;;;13.60;;
36377;SDS011;22402;42.746;23.606;2023-01-29T01:59:41;34.27;;;12.43;;
36377;SDS011;22402;42.746;23.606;2023-01-29T02:02:12;29.27;;;11.50;;
36377;SDS011;22402;42.746;23.606;2023-01-29T02:04:43;33.10;;;11.63;;
36377;SDS011;22402;42.746;23.606;2023-01-29T02:07:12;25.07;;;11.13;;
36377;SDS011;22402;42.746;23.606;2023-01-29T02:09:50;35.03;;;12.93;;
36377;SDS011;22402;42.746;23.606;2023-01-29T02:12:19;29.60;;;11.73;;
36377;SDS011;22402;42.746;23.606;2023-01-29T02:14:45;36.40;;;13.37;;
36377;SDS011;22402;42.746;23.606;2023-01-29T02:17:12;38.93;;;15.10;;
36377;SDS011;22402;42.746;23.606;2023-01-29T02:22:27;24.00;;;10.30;;
36377;SDS011;22402;42.746;23.606;2023-01-29T02:30:33;25.07;;;9.37;;
36377;SDS011;22402;42.746;23.606;2023-01-29T02:33:00;31.33;;;11.17;;
36377;SDS011;22402;42.746;23.606;2023-01-29T02:35:34;31.10;;;10.87;;
36377;SDS011;22402;42.746;23.606;2023-01-29T02:38:08;35.00;;;11.93;;
36377;SDS011;22402;42.746;23.606;2023-01-29T02:40:47;34.83;;;11.20;;
36377;SDS011;22402;42.746;23.606;2023-01-29T02:46:08;33.80;;;10.90;;
36377;SDS011;22402;42.746;23.606;2023-01-29T02:49:01;33.13;;;11.37;;
36377;SDS011;22402;42.746;23.606;2023-01-29T02:51:57;29.00;;;10.37;;
36377;SDS011;22402;42.746;23.606;2023-01-29T02:57:10;27.80;;;9.60;;
36377;SDS011;22402;42.746;23.606;2023-01-29T03:02:30;34.50;;;10.90;;
36377;SDS011;22402;42.746;23.606;2023-01-29T03:05:00;29.03;;;9.80;;
36377;SDS011;22402;42.746;23.606;2023-01-29T03:07:32;24.83;;;9.07;;
36377;SDS011;22402;42.746;23.606;2023-01-29T03:10:03;27.73;;;10.87;;
36377;SDS011;22402;42.746;23.606;2023-01-29T03:12:33;27.17;;;10.87;;
36377;SDS011;22402;42.746;23.606;2023-01-29T03:15:07;25.50;;;11.30;;
36377;SDS011;22402;42.746;23.606;2023-01-29T03:17:39;24.97;;;9.70;;
36377;SDS011;22402;42.746;23.606;2023-01-29T03:20:10;25.80;;;9.77;;
36377;SDS011;22402;42.746;23.606;2023-01-29T03:22:40;28.57;;;10.17;;
36377;SDS011;22402;42.746;23.606;2023-01-29T03:25:12;30.00;;;9.80;;
36377;SDS011;22402;42.746;23.606;2023-01-29T03:27:48;25.50;;;9.60;;
36377;SDS011;22402;42.746;23.606;2023-01-29T03:30:19;26.90;;;9.33;;
36377;SDS011;22402;42.746;23.606;2023-01-29T03:32:49;26.60;;;9.63;;
36377;SDS011;22402;42.746;23.606;2023-01-29T03:35:16;21.90;;;8.57;;
36377;SDS011;22402;42.746;23.606;2023-01-29T03:37:46;24.47;;;9.50;;
36377;SDS011;22402;42.746;23.606;2023-01-29T03:40:12;29.57;;;9.63;;
36377;SDS011;22402;42.746;23.606;2023-01-29T03:51:32;37.23;;;13.30;;
36377;SDS011;22402;42.746;23.606;2023-01-29T04:01:58;30.47;;;10.93;;
36377;SDS011;22402;42.746;23.606;2023-01-29T04:04:28;25.73;;;10.03;;
36377;SDS011;22402;42.746;23.606;2023-01-29T04:06:59;36.83;;;11.67;;
36377;SDS011;22402;42.746;23.606;2023-01-29T04:09:50;28.67;;;10.17;;
36377;SDS011;22402;42.746;23.606;2023-01-29T04:12:23;27.77;;;9.23;;
36377;SDS011;22402;42.746;23.606;2023-01-29T04:14:54;22.73;;;9.43;;
36377;SDS011;22402;42.746;23.606;2023-01-29T04:17:30;23.83;;;9.70;;
36377;SDS011;22402;42.746;23.606;2023-01-29T04:20:02;23.63;;;9.30;;
36377;SDS011;22402;42.746;23.606;2023-01-29T04:22:31;25.07;;;10.23;;
36377;SDS011;22402;42.746;23.606;2023-01-29T04:24:59;21.50;;;8.70;;
36377;SDS011;22402;42.746;23.606;2023-01-29T04:27:32;25.30;;;10.60;;
36377;SDS011;22402;42.746;23.606;2023-01-29T04:41:24;29.37;;;10.43;;
36377;SDS011;22402;42.746;23.606;2023-01-29T04:43:59;34.67;;;11.10;;
36377;SDS011;22402;42.746;23.606;2023-01-29T04:46:30;27.70;;;10.10;;
36377;SDS011;22402;42.746;23.606;2023-01-29T04:57:03;29.03;;;9.43;;
36377;SDS011;22402;42.746;23.606;2023-01-29T04:59:37;26.50;;;10.17;;
36377;SDS011;22402;42.746;23.606;2023-01-29T05:02:07;29.53;;;10.40;;
36377;SDS011;22402;42.746;23.606;2023-01-29T05:04:35;29.63;;;9.53;;
36377;SDS011;22402;42.746;23.606;2023-01-29T05:07:06;22.90;;;8.27;;
36377;SDS011;22402;42.746;23.606;2023-01-29T05:09:36;16.90;;;6.87;;
36377;SDS011;22402;42.746;23.606;2023-01-29T05:12:04;20.33;;;8.07;;
36377;SDS011;22402;42.746;23.606;2023-01-29T05:14:33;23.60;;;8.50;;
36377;SDS011;22402;42.746;23.606;2023-01-29T05:17:01;21.07;;;7.83;;
36377;SDS011;22402;42.746;23.606;2023-01-29T05:19:31;19.87;;;7.60;;
36377;SDS011;22402;42.746;23.606;2023-01-29T05:21:56;40.10;;;11.27;;
36377;SDS011;22402;42.746;23.606;2023-01-29T05:24:23;23.50;;;8.87;;
36377;SDS011;22402;42.746;23.606;2023-01-29T05:26:50;21.47;;;8.27;;
36377;SDS011;22402;42.746;23.606;2023-01-29T05:29:17;31.23;;;10.13;;
36377;SDS011;22402;42.746;23.606;2023-01-29T05:31:43;22.00;;;8.63;;
36377;SDS011;22402;42.746;23.606;2023-01-29T05:34:08;21.83;;;8.00;;
36377;SDS011;22402;42.746;23.606;2023-01-29T05:36:34;18.17;;;7.67;;
36377;SDS011;22402;42.746;23.606;2023-01-29T05:38:59;21.73;;;7.93;;
36377;SDS011;22402;42.746;23.606;2023-01-29T05:41:24;41.67;;;11.90;;
36377;SDS011;22402;42.746;23.606;2023-01-29T05:43:50;27.23;;;8.93;;
36377;SDS011;22402;42.746;23.606;2023-01-29T05:46:15;22.23;;;9.37;;
36377;SDS011;22402;42.746;23.606;2023-01-29T05:48:40;22.00;;;8.10;;
36377;SDS011;22402;42.746;23.606;2023-01-29T05:51:05;21.43;;;8.70;;
36377;SDS011;22402;42.746;23.606;2023-01-29T05:53:31;21.60;;;9.20;;
36377;SDS011;22402;42.746;23.606;2023-01-29T05:55:59;28.10;;;9.13;;
36377;SDS011;22402;42.746;23.606;2023-01-29T05:58:25;22.30;;;8.67;;
36377;SDS011;22402;42.746;23.606;2023-01-29T06:00:51;24.10;;;9.80;;
36377;SDS011;22402;42.746;23.606;2023-01-29T06:03:16;25.30;;;9.50;;
36377;SDS011;22402;42.746;23.606;2023-01-29T06:05:41;21.63;;;8.30;;
36377;SDS011;22402;42.746;23.606;2023-01-29T06:08:07;24.87;;;9.60;;
36377;SDS011;22402;42.746;23.606;2023-01-29T06:10:32;19.87;;;8.47;;
36377;SDS011;22402;42.746;23.606;2023-01-29T06:12:58;24.30;;;9.47;;
36377;SDS011;22402;42.746;23.606;2023-01-29T06:15:23;18.87;;;7.83;;
36377;SDS011;22402;42.746;23.606;2023-01-29T06:17:49;21.60;;;7.87;;
36377;SDS011;22402;42.746;23.606;2023-01-29T06:20:14;24.57;;;9.50;;
36377;SDS011;22402;42.746;23.606;2023-01-29T06:22:39;30.23;;;10.03;;
36377;SDS011;22402;42.746;23.606;2023-01-29T06:25:05;19.40;;;7.90;;
36377;SDS011;22402;42.746;23.606;2023-01-29T06:27:31;19.27;;;8.10;;
36377;SDS011;22402;42.746;23.606;2023-01-29T06:29:56;21.27;;;7.57;;
36377;SDS011;22402;42.746;23.606;2023-01-29T06:32:21;22.17;;;8.83;;
36377;SDS011;22402;42.746;23.606;2023-01-29T06:34:47;18.40;;;8.07;;
36377;SDS011;22402;42.746;23.606;2023-01-29T06:37:15;32.30;;;11.30;;
36377;SDS011;22402;42.746;23.606;2023-01-29T06:39:41;22.07;;;8.90;;
36377;SDS011;22402;42.746;23.606;2023-01-29T06:42:06;20.70;;;8.50;;
36377;SDS011;22402;42.746;23.606;2023-01-29T06:44:32;19.17;;;8.83;;
36377;SDS011;22402;42.746;23.606;2023-01-29T06:46:57;26.60;;;9.90;;
36377;SDS011;22402;42.746;23.606;2023-01-29T06:49:22;34.83;;;10.43;;
36377;SDS011;22402;42.746;23.606;2023-01-29T06:51:48;33.27;;;11.87;;
36377;SDS011;22402;42.746;23.606;2023-01-29T06:54:13;31.90;;;12.00;;
36377;SDS011;22402;42.746;23.606;2023-01-29T06:56:38;20.60;;;8.97;;
36377;SDS011;22402;42.746;23.606;2023-01-29T06:59:04;20.20;;;9.00;;
36377;SDS011;22402;42.746;23.606;2023-01-29T07:01:29;27.80;;;10.37;;
36377;SDS011;22402;42.746;23.606;2023-01-29T07:03:55;28.73;;;11.20;;
36377;SDS011;22402;42.746;23.606;2023-01-29T07:06:20;31.00;;;10.70;;
36377;SDS011;22402;42.746;23.606;2023-01-29T07:08:45;24.73;;;9.50;;
36377;SDS011;22402;42.746;23.606;2023-01-29T07:11:10;35.50;;;12.80;;
36377;SDS011;22402;42.746;23.606;2023-01-29T07:13:36;26.87;;;11.30;;
36377;SDS011;22402;42.746;23.606;2023-01-29T07:16:03;29.87;;;10.80;;
36377;SDS011;22402;42.746;23.606;2023-01-29T07:18:29;25.93;;;11.03;;
36377;SDS011;22402;42.746;23.606;2023-01-29T07:20:55;34.60;;;12.60;;
36377;SDS011;22402;42.746;23.606;2023-01-29T07:23:21;46.30;;;14.73;;
36377;SDS011;22402;42.746;23.606;2023-01-29T07:25:47;46.47;;;17.80;;
36377;SDS011;22402;42.746;23.606;2023-01-29T07:28:12;34.03;;;15.00;;
36377;SDS011;22402;42.746;23.606;2023-01-29T07:30:37;41.47;;;13.50;;
36377;SDS011;22402;42.746;23.606;2023-01-29T07:33:03;37.90;;;13.33;;
36377;SDS011;22402;42.746;23.606;2023-01-29T07:35:31;37.33;;;14.83;;
36377;SDS011;22402;42.746;23.606;2023-01-29T07:37:59;29.17;;;11.77;;
36377;SDS011;22402;42.746;23.606;2023-01-29T07:40:25;35.10;;;13.50;;
36377;SDS011;22402;42.746;23.606;2023-01-29T07:43:00;30.17;;;11.27;;
36377;SDS011;22402;42.746;23.606;2023-01-29T07:45:27;31.63;;;11.63;;
36377;SDS011;22402;42.746;23.606;2023-01-29T07:47:54;25.27;;;11.87;;
36377;SDS011;22402;42.746;23.606;2023-01-29T07:50:20;33.97;;;12.33;;
36377;SDS011;22402;42.746;23.606;2023-01-29T07:52:46;30.57;;;12.30;;
36377;SDS011;22402;42.746;23.606;2023-01-29T07:55:11;26.67;;;12.03;;
36377;SDS011;22402;42.746;23.606;2023-01-29T07:57:37;33.90;;;13.37;;
36377;SDS011;22402;42.746;23.606;2023-01-29T08:00:02;32.10;;;12.87;;
36377;SDS011;22402;42.746;23.606;2023-01-29T08:02:28;26.23;;;12.00;;
36377;SDS011;22402;42.746;23.606;2023-01-29T08:04:53;31.10;;;13.53;;
36377;SDS011;22402;42.746;23.606;2023-01-29T08:07:18;35.43;;;13.23;;
36377;SDS011;22402;42.746;23.606;2023-01-29T08:09:44;38.57;;;14.07;;
36377;SDS011;22402;42.746;23.606;2023-01-29T08:12:10;28.83;;;12.30;;
36377;SDS011;22402;42.746;23.606;2023-01-29T08:14:35;53.33;;;16.13;;
36377;SDS011;22402;42.746;23.606;2023-01-29T08:17:00;33.00;;;13.37;;
36377;SDS011;22402;42.746;23.606;2023-01-29T08:19:26;35.03;;;12.67;;
36377;SDS011;22402;42.746;23.606;2023-01-29T08:21:51;50.30;;;15.70;;
36377;SDS011;22402;42.746;23.606;2023-01-29T08:24:16;33.20;;;12.23;;
36377;SDS011;22402;42.746;23.606;2023-01-29T08:26:42;32.00;;;13.20;;
36377;SDS011;22402;42.746;23.606;2023-01-29T08:29:07;39.50;;;13.97;;
36377;SDS011;22402;42.746;23.606;2023-01-29T08:31:34;34.73;;;14.00;;
36377;SDS011;22402;42.746;23.606;2023-01-29T08:34:00;42.20;;;14.83;;
36377;SDS011;22402;42.746;23.606;2023-01-29T08:36:27;33.37;;;12.70;;
36377;SDS011;22402;42.746;23.606;2023-01-29T08:38:52;32.63;;;12.90;;
36377;SDS011;22402;42.746;23.606;2023-01-29T08:41:18;40.10;;;15.00;;
36377;SDS011;22402;42.746;23.606;2023-01-29T08:43:43;32.90;;;13.30;;
36377;SDS011;22402;42.746;23.606;2023-01-29T08:46:08;34.33;;;13.53;;
36377;SDS011;22402;42.746;23.606;2023-01-29T08:48:34;45.27;;;19.70;;
36377;SDS011;22402;42.746;23.606;2023-01-29T08:51:00;28.07;;;13.30;;
36377;SDS011;22402;42.746;23.606;2023-01-29T08:53:25;30.43;;;13.67;;
36377;SDS011;22402;42.746;23.606;2023-01-29T08:55:51;36.30;;;13.00;;
36377;SDS011;22402;42.746;23.606;2023-01-29T08:58:16;30.33;;;12.60;;
36377;SDS011;22402;42.746;23.606;2023-01-29T09:00:42;30.83;;;12.43;;
36377;SDS011;22402;42.746;23.606;2023-01-29T09:03:08;26.33;;;12.23;;
36377;SDS011;22402;42.746;23.606;2023-01-29T09:05:34;31.43;;;12.70;;
36377;SDS011;22402;42.746;23.606;2023-01-29T09:08:02;30.43;;;12.70;;
36377;SDS011;22402;42.746;23.606;2023-01-29T09:10:28;30.97;;;12.23;;
36377;SDS011;22402;42.746;23.606;2023-01-29T09:12:54;35.73;;;13.30;;
36377;SDS011;22402;42.746;23.606;2023-01-29T09:15:19;34.20;;;13.20;;
36377;SDS011;22402;42.746;23.606;2023-01-29T09:17:45;42.17;;;14.00;;
36377;SDS011;22402;42.746;23.606;2023-01-29T09:20:10;26.43;;;12.97;;
36377;SDS011;22402;42.746;23.606;2023-01-29T09:22:36;36.33;;;15.00;;
36377;SDS011;22402;42.746;23.606;2023-01-29T09:25:01;33.47;;;12.70;;
36377;SDS011;22402;42.746;23.606;2023-01-29T09:27:27;42.43;;;14.50;;
36377;SDS011;22402;42.746;23.606;2023-01-29T09:29:53;40.90;;;14.40;;
36377;SDS011;22402;42.746;23.606;2023-01-29T09:32:18;35.17;;;13.33;;
36377;SDS011;22402;42.746;23.606;2023-01-29T09:34:44;30.43;;;12.93;;
36377;SDS011;22402;42.746;23.606;2023-01-29T09:37:09;26.57;;;11.77;;
36377;SDS011;22402;42.746;23.606;2023-01-29T09:39:35;27.10;;;11.10;;
36377;SDS011;22402;42.746;23.606;2023-01-29T09:47:23;46.13;;;15.70;;
36377;SDS011;22402;42.746;23.606;2023-01-29T09:50:00;30.00;;;12.73;;
36377;SDS011;22402;42.746;23.606;2023-01-29T09:55:42;25.87;;;10.90;;
36377;SDS011;22402;42.746;23.606;2023-01-29T09:58:18;38.00;;;13.83;;
36377;SDS011;22402;42.746;23.606;2023-01-29T10:00:58;40.47;;;14.80;;
36377;SDS011;22402;42.746;23.606;2023-01-29T10:06:24;25.97;;;11.87;;
36377;SDS011;22402;42.746;23.606;2023-01-29T10:14:22;34.23;;;14.97;;
36377;SDS011;22402;42.746;23.606;2023-01-29T10:25:21;31.17;;;13.47;;
36377;SDS011;22402;42.746;23.606;2023-01-29T10:27:48;35.80;;;15.20;;
36377;SDS011;22402;42.746;23.606;2023-01-29T10:30:33;33.10;;;14.60;;
36377;SDS011;22402;42.746;23.606;2023-01-29T10:33:03;34.77;;;14.80;;
36377;SDS011;22402;42.746;23.606;2023-01-29T10:35:43;38.10;;;13.90;;
36377;SDS011;22402;42.746;23.606;2023-01-29T10:38:34;40.77;;;15.17;;
36377;SDS011;22402;42.746;23.606;2023-01-29T10:41:39;34.03;;;12.93;;
36377;SDS011;22402;42.746;23.606;2023-01-29T10:55:32;34.20;;;14.20;;
36377;SDS011;22402;42.746;23.606;2023-01-29T11:00:55;42.40;;;15.77;;
36377;SDS011;22402;42.746;23.606;2023-01-29T11:11:16;41.83;;;18.83;;
36377;SDS011;22402;42.746;23.606;2023-01-29T11:13:46;41.57;;;16.17;;
36377;SDS011;22402;42.746;23.606;2023-01-29T11:16:13;41.70;;;15.80;;
36377;SDS011;22402;42.746;23.606;2023-01-29T11:18:52;34.70;;;14.93;;
36377;SDS011;22402;42.746;23.606;2023-01-29T11:21:22;30.60;;;13.63;;
36377;SDS011;22402;42.746;23.606;2023-01-29T11:23:49;42.73;;;16.57;;
36377;SDS011;22402;42.746;23.606;2023-01-29T11:26:19;33.60;;;16.07;;
36377;SDS011;22402;42.746;23.606;2023-01-29T11:28:47;48.80;;;18.20;;
36377;SDS011;22402;42.746;23.606;2023-01-29T11:33:51;31.67;;;14.50;;
36377;SDS011;22402;42.746;23.606;2023-01-29T11:39:17;38.87;;;16.70;;
36377;SDS011;22402;42.746;23.606;2023-01-29T11:44:16;34.93;;;15.90;;
36377;SDS011;22402;42.746;23.606;2023-01-29T11:46:52;41.60;;;18.77;;
36377;SDS011;22402;42.746;23.606;2023-01-29T11:49:21;33.63;;;16.50;;
36377;SDS011;22402;42.746;23.606;2023-01-29T11:51:54;32.20;;;16.90;;
36377;SDS011;22402;42.746;23.606;2023-01-29T11:54:20;36.93;;;15.83;;
36377;SDS011;22402;42.746;23.606;2023-01-29T11:56:52;37.90;;;17.27;;
36377;SDS011;22402;42.746;23.606;2023-01-29T12:04:54;38.27;;;16.87;;
36377;SDS011;22402;42.746;23.606;2023-01-29T12:07:22;33.60;;;16.63;;
36377;SDS011;22402;42.746;23.606;2023-01-29T12:09:48;46.90;;;18.70;;
36377;SDS011;22402;42.746;23.606;2023-01-29T12:12:27;37.63;;;18.20;;
36377;SDS011;22402;42.746;23.606;2023-01-29T12:15:03;34.20;;;16.90;;
36377;SDS011;22402;42.746;23.606;2023-01-29T12:17:29;35.63;;;17.40;;
36377;SDS011;22402;42.746;23.606;2023-01-29T12:20:01;37.63;;;16.60;;
36377;SDS011;22402;42.746;23.606;2023-01-29T12:25:15;37.00;;;17.57;;
36377;SDS011;22402;42.746;23.606;2023-01-29T12:27:47;44.53;;;17.10;;
36377;SDS011;22402;42.746;23.606;2023-01-29T12:30:24;34.23;;;15.63;;
36377;SDS011;22402;42.746;23.606;2023-01-29T12:35:29;50.53;;;18.50;;
36377;SDS011;22402;42.746;23.606;2023-01-29T12:40:43;29.47;;;14.70;;
36377;SDS011;22402;42.746;23.606;2023-01-29T12:43:16;37.17;;;17.20;;
36377;SDS011;22402;42.746;23.606;2023-01-29T12:45:43;35.00;;;15.80;;
36377;SDS011;22402;42.746;23.606;2023-01-29T12:48:15;39.10;;;16.80;;
36377;SDS011;22402;42.746;23.606;2023-01-29T12:50:47;33.33;;;15.13;;
36377;SDS011;22402;42.746;23.606;2023-01-29T12:53:36;38.30;;;16.00;;
36377;SDS011;22402;42.746;23.606;2023-01-29T12:56:10;41.67;;;18.03;;
36377;SDS011;22402;42.746;23.606;2023-01-29T12:58:44;42.37;;;17.73;;
36377;SDS011;22402;42.746;23.606;2023-01-29T13:01:14;53.63;;;19.00;;
36377;SDS011;22402;42.746;23.606;2023-01-29T13:03:45;37.47;;;15.43;;
36377;SDS011;22402;42.746;23.606;2023-01-29T13:06:19;35.33;;;16.00;;
36377;SDS011;22402;42.746;23.606;2023-01-29T13:08:51;34.10;;;15.77;;
36377;SDS011;22402;42.746;23.606;2023-01-29T13:11:40;33.60;;;16.47;;
36377;SDS011;22402;42.746;23.606;2023-01-29T13:14:24;32.60;;;14.90;;
36377;SDS011;22402;42.746;23.606;2023-01-29T13:16:52;33.33;;;15.60;;
36377;SDS011;22402;42.746;23.606;2023-01-29T13:19:28;32.23;;;14.53;;
36377;SDS011;22402;42.746;23.606;2023-01-29T13:22:00;28.93;;;14.60;;
36377;SDS011;22402;42.746;23.606;2023-01-29T13:24:35;30.87;;;15.10;;
36377;SDS011;22402;42.746;23.606;2023-01-29T13:27:04;33.13;;;15.20;;
36377;SDS011;22402;42.746;23.606;2023-01-29T13:29:30;38.10;;;15.37;;
36377;SDS011;22402;42.746;23.606;2023-01-29T13:31:59;38.93;;;15.90;;
36377;SDS011;22402;42.746;23.606;2023-01-29T13:34:32;36.20;;;15.43;;
36377;SDS011;22402;42.746;23.606;2023-01-29T13:37:11;41.10;;;16.07;;
36377;SDS011;22402;42.746;23.606;2023-01-29T13:39:46;34.37;;;15.30;;
36377;SDS011;22402;42.746;23.606;2023-01-29T13:42:24;29.90;;;14.63;;
36377;SDS011;22402;42.746;23.606;2023-01-29T13:45:03;34.13;;;15.67;;
36377;SDS011;22402;42.746;23.606;2023-01-29T13:47:31;32.60;;;15.70;;
36377;SDS011;22402;42.746;23.606;2023-01-29T13:50:00;32.63;;;15.87;;
36377;SDS011;22402;42.746;23.606;2023-01-29T14:02:45;34.70;;;15.67;;
36377;SDS011;22402;42.746;23.606;2023-01-29T14:05:52;31.40;;;14.87;;
36377;SDS011;22402;42.746;23.606;2023-01-29T14:11:46;38.47;;;14.40;;
36377;SDS011;22402;42.746;23.606;2023-01-29T14:13:45;39.13;;;15.20;;
36377;SDS011;22402;42.746;23.606;2023-01-29T14:18:44;39.20;;;15.17;;
36377;SDS011;22402;42.746;23.606;2023-01-29T14:26:48;40.17;;;16.27;;
36377;SDS011;22402;42.746;23.606;2023-01-29T14:29:18;36.23;;;16.37;;
36377;SDS011;22402;42.746;23.606;2023-01-29T14:34:16;38.33;;;15.50;;
36377;SDS011;22402;42.746;23.606;2023-01-29T14:36:46;38.23;;;16.97;;
36377;SDS011;22402;42.746;23.606;2023-01-29T14:39:19;35.37;;;17.23;;
36377;SDS011;22402;42.746;23.606;2023-01-29T14:41:51;36.20;;;17.47;;
36377;SDS011;22402;42.746;23.606;2023-01-29T14:49:56;39.37;;;16.60;;
36377;SDS011;22402;42.746;23.606;2023-01-29T14:52:36;38.33;;;15.93;;
36377;SDS011;22402;42.746;23.606;2023-01-29T14:55:05;47.60;;;17.70;;
36377;SDS011;22402;42.746;23.606;2023-01-29T14:57:38;44.20;;;17.33;;
36377;SDS011;22402;42.746;23.606;2023-01-29T15:00:48;41.53;;;16.57;;
36377;SDS011;22402;42.746;23.606;2023-01-29T15:03:11;30.73;;;15.60;;
36377;SDS011;22402;42.746;23.606;2023-01-29T15:05:43;32.93;;;14.07;;
36377;SDS011;22402;42.746;23.606;2023-01-29T15:08:21;38.97;;;16.03;;
36377;SDS011;22402;42.746;23.606;2023-01-29T15:10:51;48.47;;;20.10;;
36377;SDS011;22402;42.746;23.606;2023-01-29T15:14:05;44.63;;;16.70;;
36377;SDS011;22402;42.746;23.606;2023-01-29T15:16:13;52.67;;;20.27;;
36377;SDS011;22402;42.746;23.606;2023-01-29T15:18:43;65.10;;;20.60;;
36377;SDS011;22402;42.746;23.606;2023-01-29T15:21:16;59.77;;;19.93;;
36377;SDS011;22402;42.746;23.606;2023-01-29T15:23:43;53.10;;;19.57;;
36377;SDS011;22402;42.746;23.606;2023-01-29T15:26:10;53.87;;;20.20;;
36377;SDS011;22402;42.746;23.606;2023-01-29T15:28:41;48.60;;;19.53;;
36377;SDS011;22402;42.746;23.606;2023-01-29T15:31:10;68.13;;;23.03;;
36377;SDS011;22402;42.746;23.606;2023-01-29T15:33:40;47.47;;;17.93;;
36377;SDS011;22402;42.746;23.606;2023-01-29T15:36:11;57.80;;;18.70;;
36377;SDS011;22402;42.746;23.606;2023-01-29T15:38:43;59.40;;;19.73;;
36377;SDS011;22402;42.746;23.606;2023-01-29T15:41:19;61.30;;;21.40;;
36377;SDS011;22402;42.746;23.606;2023-01-29T15:43:46;45.53;;;17.50;;
36377;SDS011;22402;42.746;23.606;2023-01-29T15:46:24;42.77;;;18.10;;
36377;SDS011;22402;42.746;23.606;2023-01-29T15:48:58;44.13;;;17.80;;
36377;SDS011;22402;42.746;23.606;2023-01-29T15:51:26;38.07;;;18.90;;
36377;SDS011;22402;42.746;23.606;2023-01-29T15:53:53;38.40;;;17.10;;
36377;SDS011;22402;42.746;23.606;2023-01-29T15:56:22;37.43;;;17.60;;
36377;SDS011;22402;42.746;23.606;2023-01-29T15:58:51;39.13;;;18.60;;
36377;SDS011;22402;42.746;23.606;2023-01-29T16:01:19;40.20;;;18.57;;
36377;SDS011;22402;42.746;23.606;2023-01-29T16:03:47;50.80;;;19.70;;
36377;SDS011;22402;42.746;23.606;2023-01-29T16:06:14;37.80;;;17.93;;
36377;SDS011;22402;42.746;23.606;2023-01-29T16:08:39;48.83;;;17.77;;
36377;SDS011;22402;42.746;23.606;2023-01-29T16:11:08;45.70;;;18.73;;
36377;SDS011;22402;42.746;23.606;2023-01-29T16:13:38;44.70;;;18.80;;
36377;SDS011;22402;42.746;23.606;2023-01-29T16:16:17;36.73;;;16.43;;
36377;SDS011;22402;42.746;23.606;2023-01-29T16:18:45;43.83;;;17.30;;
36377;SDS011;22402;42.746;23.606;2023-01-29T16:21:15;50.00;;;20.97;;
36377;SDS011;22402;42.746;23.606;2023-01-29T16:23:49;51.10;;;20.00;;
36377;SDS011;22402;42.746;23.606;2023-01-29T16:26:18;42.13;;;17.67;;
36377;SDS011;22402;42.746;23.606;2023-01-29T16:28:48;42.43;;;17.60;;
36377;SDS011;22402;42.746;23.606;2023-01-29T16:31:19;48.73;;;18.60;;
36377;SDS011;22402;42.746;23.606;2023-01-29T16:33:47;44.73;;;19.07;;
36377;SDS011;22402;42.746;23.606;2023-01-29T16:36:17;66.73;;;21.63;;
36377;SDS011;22402;42.746;23.606;2023-01-29T16:38:48;47.33;;;18.80;;
36377;SDS011;22402;42.746;23.606;2023-01-29T16:47:13;42.53;;;19.50;;
36377;SDS011;22402;42.746;23.606;2023-01-29T16:49:45;43.37;;;18.77;;
36377;SDS011;22402;42.746;23.606;2023-01-29T16:52:28;45.13;;;19.17;;
36377;SDS011;22402;42.746;23.606;2023-01-29T16:54:59;48.50;;;19.77;;
36377;SDS011;22402;42.746;23.606;2023-01-29T16:57:28;45.23;;;18.57;;
36377;SDS011;22402;42.746;23.606;2023-01-29T17:00:00;49.50;;;19.67;;
36377;SDS011;22402;42.746;23.606;2023-01-29T17:02:30;40.93;;;19.00;;
36377;SDS011;22402;42.746;23.606;2023-01-29T17:05:14;48.40;;;20.20;;